Time;durP1;ratioP1;P1;durP2;ratioP2;P2;SDS_P1;SDS_P2;PMS_P1;PMS_P2;Temp;Humidity;BMP_temperature;BMP_pressure;BME280_temperature;BME280_humidity;BME280_pressure;Samples;Min_cycle;Max_cycle;Signal;HPM_P1;HPM_P2
2023/04/21 00:01:31;;;;;;;7.25;4.97;;;;;;;6.02;99.62;101366.16;5055882;28;20029;-79
2023/04/21 00:04:05;;;;;;;4.55;2.53;;;;;;;6.02;99.42;101376.84;5055325;28;20028;-79
2023/04/21 00:06:35;;;;;;;3.42;3.10;;;;;;;5.77;100.00;101364.72;5055622;28;20083;-78
2023/04/21 00:09:04;;;;;;;6.15;3.65;;;;;;;5.81;100.00;101373.28;5055340;28;20040;-79
2023/04/21 00:11:32;;;;;;;5.28;3.53;;;;;;;5.55;100.00;101349.66;5055061;28;20390;-78
2023/04/21 00:14:00;;;;;;;4.13;3.35;;;;;;;5.61;100.00;101375.81;5055910;28;20025;-79
2023/04/21 00:16:28;;;;;;;5.03;2.63;;;;;;;5.54;100.00;101377.31;5038585;28;20471;-79
2023/04/21 00:18:57;;;;;;;3.08;2.50;;;;;;;5.52;100.00;101373.91;5022610;28;20467;-80
2023/04/21 00:21:25;;;;;;;6.40;3.97;;;;;;;5.43;100.00;101358.69;5039724;28;20507;-78
2023/04/21 00:23:54;;;;;;;7.28;3.35;;;;;;;5.33;100.00;101350.59;5039153;28;20534;-78
2023/04/21 00:26:26;;;;;;;10.00;4.72;;;;;;;5.35;100.00;101351.31;5022401;28;20479;-78
2023/04/21 00:28:54;;;;;;;2.97;2.40;;;;;;;5.39;100.00;101357.25;5023053;28;20033;-77
2023/04/21 00:31:25;;;;;;;6.88;3.03;;;;;;;5.24;100.00;101343.38;5021869;28;20075;-79
2023/04/21 00:33:54;;;;;;;3.75;2.00;;;;;;;5.25;100.00;101363.72;5055085;28;20463;-77
2023/04/21 00:36:29;;;;;;;8.93;3.15;;;;;;;5.11;100.00;101358.66;5039079;28;20064;-77
2023/04/21 00:39:00;;;;;;;5.88;2.20;;;;;;;4.92;100.00;101361.97;5054738;28;20033;-78
2023/04/21 00:41:27;;;;;;;4.88;3.20;;;;;;;4.78;100.00;101357.78;5022111;28;20538;-77
2023/04/21 00:44:06;;;;;;;3.15;2.47;;;;;;;4.72;100.00;101366.25;5022102;28;20131;-79
2023/04/21 00:46:32;;;;;;;5.90;2.05;;;;;;;4.71;100.00;101361.88;5021742;28;20039;-77
2023/04/21 00:49:04;;;;;;;4.40;2.85;;;;;;;4.75;100.00;101358.03;5037981;28;20226;-77
2023/04/21 00:51:32;;;;;;;2.95;2.50;;;;;;;4.79;100.00;101370.09;5022319;28;20106;-79
2023/04/21 00:54:03;;;;;;;4.00;2.55;;;;;;;4.81;100.00;101361.03;5054347;28;20032;-79
2023/04/21 00:56:31;;;;;;;5.25;3.22;;;;;;;4.95;100.00;101359.94;5020813;28;20033;-77
2023/04/21 00:58:58;;;;;;;3.50;2.25;;;;;;;4.95;100.00;101353.72;5038042;28;20502;-80
2023/04/21 01:01:28;;;;;;;4.20;2.92;;;;;;;4.98;100.00;101353.50;5054085;28;20025;-78
2023/04/21 01:04:01;;;;;;;6.65;2.83;;;;;;;4.96;100.00;101350.94;5054674;28;20033;-76
2023/04/21 01:06:27;;;;;;;2.40;1.77;;;;;;;4.94;100.00;101347.56;5053581;28;20036;-78
2023/04/21 01:08:54;;;;;;;2.70;2.28;;;;;;;5.04;100.00;101353.84;5054421;28;20127;-77
2023/04/21 01:11:20;;;;;;;2.28;1.67;;;;;;;5.05;100.00;101349.34;5038017;28;20033;-78
2023/04/21 01:13:53;;;;;;;3.83;2.60;;;;;;;4.94;100.00;101342.22;5037989;28;20035;-77
2023/04/21 01:16:25;;;;;;;3.85;2.17;;;;;;;5.09;100.00;101356.13;5053792;28;20100;-77
2023/04/21 01:18:58;;;;;;;2.72;1.85;;;;;;;5.07;100.00;101358.06;5022504;28;20099;-78
2023/04/21 01:21:25;;;;;;;3.72;2.83;;;;;;;4.94;100.00;101344.91;5055055;28;20487;-77
2023/04/21 01:23:52;;;;;;;3.30;1.92;;;;;;;5.06;100.00;101353.72;5037536;28;20084;-79
2023/04/21 01:26:21;;;;;;;3.75;2.72;;;;;;;5.09;100.00;101352.63;5054086;28;20032;-77
2023/04/21 01:28:47;;;;;;;4.05;2.65;;;;;;;5.24;100.00;101349.53;5021446;28;20032;-80
2023/04/21 01:31:17;;;;;;;4.50;2.03;;;;;;;5.32;99.82;101346.25;5020498;28;20033;-77
2023/04/21 01:33:46;;;;;;;3.95;2.38;;;;;;;5.35;99.45;101351.31;5037812;28;20500;-77
2023/04/21 01:36:14;;;;;;;2.83;2.03;;;;;;;5.21;99.27;101344.47;5021146;28;20065;-80
2023/04/21 01:38:40;;;;;;;5.28;2.78;;;;;;;5.25;99.55;101337.91;5037316;28;20060;-78
2023/04/21 01:41:09;;;;;;;3.13;2.65;;;;;;;5.31;99.06;101341.88;5053867;28;20036;-78
2023/04/21 01:43:36;;;;;;;3.45;2.60;;;;;;;5.32;99.23;101350.72;5053672;28;20144;-79
2023/04/21 01:46:02;;;;;;;3.80;2.35;;;;;;;5.24;98.88;101344.22;5053614;28;20098;-77
2023/04/21 01:48:28;;;;;;;3.33;1.98;;;;;;;5.19;98.75;101351.75;5020618;28;20471;-77
2023/04/21 01:50:56;;;;;;;5.28;2.83;;;;;;;5.11;99.61;101348.88;5020183;28;20045;-77
2023/04/21 01:53:25;;;;;;;2.75;2.25;;;;;;;5.03;100.00;101351.31;5053386;28;20455;-78
2023/04/21 01:55:51;;;;;;;2.85;1.92;;;;;;;4.94;99.89;101341.38;5053321;28;20033;-78
2023/04/21 01:58:17;;;;;;;3.88;2.00;;;;;;;5.02;100.00;101346.94;5020013;28;20536;-77
2023/04/21 02:00:42;;;;;;;4.82;2.45;;;;;;;4.92;99.87;101352.19;5053083;28;20075;-78
2023/04/21 02:03:14;;;;;;;1.95;1.65;;;;;;;4.66;100.00;101343.63;5020178;28;20482;-78
2023/04/21 02:05:39;;;;;;;1.40;1.27;;;;;;;4.55;100.00;101349.81;5019776;28;20087;-77
2023/04/21 02:08:05;;;;;;;3.72;1.45;;;;;;;4.36;100.00;101344.25;5053186;28;20041;-78
2023/04/21 02:10:33;;;;;;;6.05;2.13;;;;;;;4.30;100.00;101347.41;5053202;28;20059;-78
2023/04/21 02:13:02;;;;;;;4.72;2.35;;;;;;;4.30;100.00;101342.91;5053252;28;20037;-78
2023/04/21 02:15:27;;;;;;;3.60;2.03;;;;;;;4.27;100.00;101344.97;5036288;28;20124;-78
2023/04/21 02:17:53;;;;;;;3.97;2.42;;;;;;;4.12;100.00;101339.88;5036293;28;20119;-78
2023/04/21 02:20:24;;;;;;;3.95;2.75;;;;;;;3.86;100.00;101319.75;5036464;28;20048;-77
2023/04/21 02:22:49;;;;;;;3.25;2.28;;;;;;;3.85;100.00;101337.53;5036440;28;20489;-78
2023/04/21 02:25:17;;;;;;;2.47;1.33;;;;;;;3.72;100.00;101327.00;5036429;28;20045;-77
2023/04/21 02:27:43;;;;;;;3.20;1.95;;;;;;;3.48;100.00;101303.13;5052788;28;20033;-77
2023/04/21 02:30:09;;;;;;;5.60;2.80;;;;;;;3.50;100.00;101319.81;5052803;28;20479;-76
2023/04/21 02:32:37;;;;;;;5.05;2.38;;;;;;;3.44;100.00;101311.44;5036432;28;20391;-77
2023/04/21 02:35:03;;;;;;;3.58;2.05;;;;;;;3.36;100.00;101320.03;5019400;28;20029;-78
2023/04/21 02:37:31;;;;;;;7.28;2.42;;;;;;;3.21;100.00;101311.38;5052477;28;20028;-79
2023/04/21 02:39:57;;;;;;;6.53;2.55;;;;;;;3.08;100.00;101316.75;5036144;28;20033;-77
2023/04/21 02:42:22;;;;;;;4.75;1.50;;;;;;;3.21;100.00;101321.16;5036192;28;20040;-77
2023/04/21 02:44:48;;;;;;;4.13;2.53;;;;;;;3.18;100.00;101308.94;5019125;28;20044;-77
2023/04/21 02:47:15;;;;;;;2.00;1.67;;;;;;;3.24;100.00;101310.28;5019593;28;20452;-77
2023/04/21 02:49:43;;;;;;;2.90;2.08;;;;;;;3.13;100.00;101304.94;5036201;28;20120;-76
2023/04/21 02:52:09;;;;;;;5.15;2.40;;;;;;;3.03;100.00;101294.13;5052060;28;20048;-77
2023/04/21 02:54:35;;;;;;;5.25;2.40;;;;;;;2.98;100.00;101290.97;5035871;28;20039;-77
2023/04/21 02:57:02;;;;;;;3.17;1.75;;;;;;;3.04;100.00;101288.72;5052447;28;20033;-77
2023/04/21 02:59:31;;;;;;;6.72;2.50;;;;;;;3.02;100.00;101290.66;5051705;28;20107;-77
2023/04/21 03:02:00;;;;;;;7.43;2.33;;;;;;;3.02;100.00;101280.03;5049596;28;20037;-77
2023/04/21 03:04:25;;;;;;;4.57;2.28;;;;;;;3.04;100.00;101293.16;5052358;28;20033;-78
2023/04/21 03:06:52;;;;;;;9.63;2.78;;;;;;;2.94;100.00;101285.06;5035663;28;20387;-77
2023/04/21 03:09:18;;;;;;;7.03;2.20;;;;;;;2.91;100.00;101290.59;5052093;28;20025;-77
2023/04/21 03:11:46;;;;;;;10.40;2.92;;;;;;;2.89;100.00;101289.84;5019428;28;20032;-77
2023/04/21 03:14:12;;;;;;;3.53;1.58;;;;;;;2.79;100.00;101287.03;5051314;28;20103;-76
2023/04/21 03:16:43;;;;;;;3.17;2.15;;;;;;;2.86;100.00;101290.09;5035547;28;20503;-76
2023/04/21 03:19:11;;;;;;;9.10;2.50;;;;;;;2.73;100.00;101278.66;5051629;28;20506;-77
2023/04/21 03:21:37;;;;;;;6.40;2.53;;;;;;;2.73;100.00;101278.66;5019387;28;20449;-77
2023/04/21 03:24:06;;;;;;;5.63;2.40;;;;;;;2.60;100.00;101268.94;5035584;28;20041;-77
2023/04/21 03:26:31;;;;;;;3.92;2.58;;;;;;;2.54;100.00;101257.91;5034750;28;20029;-77
2023/04/21 03:28:57;;;;;;;8.43;2.65;;;;;;;2.37;100.00;101253.81;5053064;28;20032;-77
2023/04/21 03:31:22;;;;;;;5.07;2.65;;;;;;;2.29;100.00;101248.22;5051965;28;20467;-76
2023/04/21 03:33:48;;;;;;;6.18;2.28;;;;;;;2.16;100.00;101262.34;5035262;28;20029;-76
2023/04/21 03:36:14;;;;;;;7.07;2.75;;;;;;;2.09;100.00;101254.94;5035426;28;20478;-76
2023/04/21 03:38:39;;;;;;;4.18;2.38;;;;;;;1.93;100.00;101252.53;5035078;28;20041;-80
2023/04/21 03:41:05;;;;;;;10.00;2.63;;;;;;;1.58;100.00;101221.38;5035441;28;20060;-77
2023/04/21 03:43:30;;;;;;;4.03;2.22;;;;;;;1.65;100.00;101257.09;5035206;28;20467;-76
2023/04/21 03:45:56;;;;;;;5.95;3.03;;;;;;;1.59;100.00;101260.19;5034682;28;20037;-77
2023/04/21 03:48:21;;;;;;;3.55;2.25;;;;;;;1.50;100.00;101266.94;5035266;28;20033;-78
2023/04/21 03:50:51;;;;;;;4.88;2.33;;;;;;;1.38;100.00;101265.16;5052010;28;20459;-76
2023/04/21 03:53:20;;;;;;;3.25;1.85;;;;;;;1.39;100.00;101268.66;5034539;28;20465;-76
2023/04/21 03:55:47;;;;;;;2.25;1.65;;;;;;;1.45;100.00;101268.22;5051862;28;20087;-77
2023/04/21 03:58:16;;;;;;;3.08;2.13;;;;;;;1.58;100.00;101271.72;5035665;28;20090;-76
2023/04/21 04:00:47;;;;;;;4.85;2.47;;;;;;;1.62;100.00;101275.88;5019163;28;20040;-77
2023/04/21 04:03:12;;;;;;;5.13;2.00;;;;;;;1.56;100.00;101278.09;5019519;28;20075;-77
2023/04/21 04:05:40;;;;;;;4.53;2.33;;;;;;;1.50;100.00;101282.84;5051720;28;20036;-78
2023/04/21 04:08:06;;;;;;;5.05;2.33;;;;;;;1.43;100.00;101276.28;5018945;28;20044;-77
2023/04/21 04:10:31;;;;;;;4.60;2.47;;;;;;;1.42;100.00;101268.44;5051650;28;20029;-77
2023/04/21 04:12:57;;;;;;;2.70;1.63;;;;;;;1.44;100.00;101280.63;5018279;28;20108;-77
2023/04/21 04:15:23;;;;;;;6.03;2.15;;;;;;;1.58;100.00;101270.88;5051347;28;20025;-77
2023/04/21 04:17:53;;;;;;;6.45;2.17;;;;;;;1.62;100.00;101257.31;5052747;28;20143;-77
2023/04/21 04:20:19;;;;;;;5.07;2.05;;;;;;;1.73;100.00;101248.63;5035184;28;20029;-77
2023/04/21 04:22:45;;;;;;;6.13;1.83;;;;;;;1.91;100.00;101233.25;5051821;28;20037;-77
2023/04/21 04:25:15;;;;;;;5.22;1.95;;;;;;;2.03;100.00;101235.00;5018665;28;20462;-77
2023/04/21 04:27:43;;;;;;;1.70;1.00;;;;;;;2.14;100.00;101240.41;5051084;28;20036;-77
2023/04/21 04:30:15;;;;;;;4.80;2.00;;;;;;;2.33;100.00;101237.28;5051860;28;20060;-76
2023/04/21 04:32:44;;;;;;;3.83;2.40;;;;;;;2.28;100.00;101236.78;5038929;28;20494;-76
2023/04/21 04:35:15;;;;;;;5.93;2.28;;;;;;;2.09;100.00;101250.50;5037881;28;20480;-77
2023/04/21 04:37:41;;;;;;;4.07;2.03;;;;;;;1.64;100.00;101220.97;5022644;28;20580;-77
2023/04/21 04:40:13;;;;;;;2.33;1.40;;;;;;;1.62;100.00;101244.06;5055157;28;20025;-77
2023/04/21 04:42:45;;;;;;;4.82;1.80;;;;;;;1.53;100.00;101239.38;5039718;28;20542;-77
2023/04/21 04:45:16;;;;;;;5.55;2.42;;;;;;;1.37;100.00;101239.59;5055061;28;20056;-77
2023/04/21 04:47:44;;;;;;;5.38;2.03;;;;;;;1.27;100.00;101234.09;5021892;28;20033;-77
2023/04/21 04:50:12;;;;;;;4.55;2.25;;;;;;;1.10;100.00;101235.22;5054411;28;20067;-76
2023/04/21 04:52:45;;;;;;;7.32;2.70;;;;;;;0.99;100.00;101244.84;5054866;28;20033;-77
2023/04/21 04:55:13;;;;;;;4.22;2.47;;;;;;;0.82;100.00;101245.94;5054551;28;20040;-77
2023/04/21 04:57:41;;;;;;;4.50;2.60;;;;;;;0.71;100.00;101230.75;5037959;28;20494;-77
2023/04/21 05:00:10;;;;;;;8.73;2.90;;;;;;;0.71;100.00;101249.28;5054472;28;20039;-77
2023/04/21 05:02:37;;;;;;;4.70;2.60;;;;;;;0.59;100.00;101236.88;5021472;28;20462;-77
2023/04/21 05:05:06;;;;;;;3.05;1.98;;;;;;;0.48;100.00;101244.63;5037588;28;20033;-76
2023/04/21 05:07:35;;;;;;;4.43;2.38;;;;;;;0.38;100.00;101244.41;5005585;28;20377;-77
2023/04/21 05:10:03;;;;;;;5.75;2.47;;;;;;;0.39;100.00;101236.34;5021381;28;20056;-77
2023/04/21 05:12:31;;;;;;;5.95;2.45;;;;;;;0.43;100.00;101229.09;5037980;28;20102;-79
2023/04/21 05:14:57;;;;;;;5.45;2.53;;;;;;;0.42;100.00;101236.19;5038042;28;20060;-78
2023/04/21 05:17:32;;;;;;;6.05;2.17;;;;;;;0.46;100.00;101241.25;5054465;28;20032;-76
2023/04/21 05:20:06;;;;;;;5.43;2.42;;;;;;;0.30;100.00;101231.66;5021617;28;20033;-76
2023/04/21 05:22:31;;;;;;;3.83;2.22;;;;;;;0.14;100.00;101230.94;5054151;28;20463;-76
2023/04/21 05:24:59;;;;;;;0.47;0.47;;;;;;;0.16;100.00;101229.91;5037518;28;20059;-76
2023/04/21 05:27:27;;;;;;;5.40;2.45;;;;;;;0.24;100.00;101233.84;5037902;28;20128;-77
2023/04/21 05:29:55;;;;;;;2.53;1.63;;;;;;;0.28;100.00;101238.00;5037978;28;20100;-77
2023/04/21 05:32:21;;;;;;;3.58;2.15;;;;;;;0.33;100.00;101230.63;5037368;28;20032;-76
2023/04/21 05:34:47;;;;;;;8.68;2.33;;;;;;;0.33;100.00;101239.41;5053704;28;20029;-79
2023/04/21 05:37:17;;;;;;;2.15;1.55;;;;;;;0.22;100.00;101228.66;5037590;28;20459;-76
2023/04/21 05:39:45;;;;;;;1.65;1.42;;;;;;;0.32;100.00;101223.59;5021361;28;20036;-77
2023/04/21 05:42:11;;;;;;;6.95;2.30;;;;;;;0.60;100.00;101230.63;5036910;28;20037;-76
2023/04/21 05:44:37;;;;;;;9.18;1.65;;;;;;;0.90;100.00;101229.53;5037077;28;20094;-77
2023/04/21 05:47:04;;;;;;;4.18;2.65;;;;;;;1.33;100.00;101219.56;5037255;28;20040;-77
2023/04/21 05:49:32;;;;;;;2.75;1.83;;;;;;;1.93;100.00;101231.31;5037032;28;20368;-78
2023/04/21 05:52:03;;;;;;;9.13;3.30;;;;;;;2.27;100.00;101229.75;5053839;28;20494;-76
2023/04/21 05:54:31;;;;;;;4.22;2.33;;;;;;;2.34;100.00;101222.22;5037066;28;20479;-76
2023/04/21 05:57:00;;;;;;;3.05;1.88;;;;;;;2.63;100.00;101217.41;5053487;28;20043;-77
2023/04/21 05:59:29;;;;;;;4.53;2.80;;;;;;;2.91;100.00;101215.34;5053256;28;20025;-76
2023/04/21 06:01:54;;;;;;;2.83;1.40;;;;;;;3.10;100.00;101207.72;5020606;28;20048;-76
2023/04/21 06:04:22;;;;;;;2.83;2.35;;;;;;;3.30;100.00;101209.66;5054408;28;20033;-76
2023/04/21 06:06:50;;;;;;;3.45;2.33;;;;;;;3.47;100.00;101219.03;5052979;28;20048;-76
2023/04/21 06:09:22;;;;;;;4.40;2.30;;;;;;;3.67;100.00;101221.94;5037037;28;20033;-76
2023/04/21 06:11:49;;;;;;;3.47;2.20;;;;;;;3.83;100.00;101230.41;5020003;28;20041;-76
2023/04/21 06:14:15;;;;;;;6.03;2.78;;;;;;;4.02;100.00;101205.84;5053275;28;20025;-76
2023/04/21 06:16:41;;;;;;;2.65;1.80;;;;;;;4.33;100.00;101222.03;5054046;28;20029;-76
2023/04/21 06:19:14;;;;;;;7.05;2.78;;;;;;;4.77;100.00;101206.91;5020843;28;20029;-77
2023/04/21 06:21:42;;;;;;;3.92;2.95;;;;;;;5.25;100.00;101207.25;5052949;28;20114;-78
2023/04/21 06:24:08;;;;;;;3.55;1.80;;;;;;;5.65;100.00;101209.16;5036164;28;20036;-77
2023/04/21 06:26:37;;;;;;;2.58;1.95;;;;;;;5.95;100.00;101183.47;5019920;28;20033;-76
2023/04/21 06:29:05;;;;;;;5.07;3.03;;;;;;;6.05;100.00;101196.84;5053027;28;20028;-77
2023/04/21 06:31:33;;;;;;;4.22;2.65;;;;;;;6.28;100.00;101203.69;5036931;28;20467;-75
2023/04/21 06:34:02;;;;;;;5.00;3.55;;;;;;;6.38;100.00;101198.38;5036527;28;20107;-76
2023/04/21 06:36:27;;;;;;;5.35;3.05;;;;;;;6.14;100.00;101194.22;5036260;28;20025;-77
2023/04/21 06:38:56;;;;;;;5.57;2.40;;;;;;;6.19;100.00;101184.94;5020128;28;20044;-76
2023/04/21 06:41:22;;;;;;;3.72;3.08;;;;;;;6.34;100.00;101172.91;5052377;28;20369;-76
2023/04/21 06:43:47;;;;;;;7.28;3.63;;;;;;;6.75;100.00;101179.84;5019531;28;20051;-77
2023/04/21 06:46:18;;;;;;;4.43;2.72;;;;;;;7.17;100.00;101186.69;5052485;28;20107;-76
2023/04/21 06:48:46;;;;;;;8.57;3.97;;;;;;;7.20;100.00;101186.41;5053160;28;20033;-77
2023/04/21 06:51:12;;;;;;;10.80;3.15;;;;;;;7.11;100.00;101179.25;5036214;28;20079;-78
2023/04/21 06:53:37;;;;;;;6.03;3.58;;;;;;;7.02;100.00;101157.72;5035464;28;20427;-77
2023/04/21 06:56:03;;;;;;;5.30;3.47;;;;;;;7.42;100.00;101169.19;5035762;28;20043;-77
2023/04/21 06:58:29;;;;;;;8.50;3.13;;;;;;;8.27;97.27;101164.56;5052580;28;20040;-77
2023/04/21 07:00:55;;;;;;;6.30;3.10;;;;;;;8.25;97.04;101174.59;5052589;28;20055;-77
2023/04/21 07:03:20;;;;;;;8.25;4.10;;;;;;;8.04;95.25;101140.88;5052542;28;20086;-76
2023/04/21 07:05:46;;;;;;;7.13;3.15;;;;;;;8.25;95.31;101162.03;5053163;28;20106;-78
2023/04/21 07:08:12;;;;;;;6.20;2.63;;;;;;;8.86;93.25;101157.78;5052381;28;20060;-78
2023/04/21 07:10:37;;;;;;;5.70;3.25;;;;;;;10.53;83.74;101167.25;5052426;28;20025;-79
2023/04/21 07:13:06;;;;;;;4.78;2.95;;;;;;;11.64;74.73;101161.28;5052520;28;20528;-77
2023/04/21 07:15:31;;;;;;;6.72;3.75;;;;;;;12.44;70.11;101157.56;5052011;28;20074;-77
2023/04/21 07:17:57;;;;;;;6.13;3.22;;;;;;;13.10;67.11;101152.50;5035667;28;20029;-78
2023/04/21 07:20:23;;;;;;;5.72;3.35;;;;;;;13.40;63.98;101168.78;5052190;28;20029;-80
2023/04/21 07:22:51;;;;;;;6.45;2.50;;;;;;;13.62;64.25;101167.03;5035836;28;20151;-77
2023/04/21 07:25:16;;;;;;;8.90;3.88;;;;;;;13.90;60.31;101179.91;5035938;28;20103;-78
2023/04/21 07:27:42;;;;;;;4.60;3.10;;;;;;;13.99;59.30;101173.34;5035410;28;20121;-77
2023/04/21 07:30:08;;;;;;;9.02;3.40;;;;;;;14.07;60.13;101174.09;5052177;28;20029;-77
2023/04/21 07:32:36;;;;;;;7.15;3.58;;;;;;;14.33;58.27;101159.22;5035140;28;20025;-77
2023/04/21 07:35:01;;;;;;;5.38;2.97;;;;;;;14.59;57.61;101164.09;5069159;28;20025;-76
2023/04/21 07:37:27;;;;;;;8.30;4.35;;;;;;;15.02;56.89;101157.84;5051758;28;20102;-80
2023/04/21 07:39:53;;;;;;;27.33;9.65;;;;;;;15.08;53.88;101155.22;5052035;28;20104;-77
2023/04/21 07:42:18;;;;;;;4.75;2.83;;;;;;;15.19;55.13;101159.25;5052114;28;20548;-78
2023/04/21 07:44:44;;;;;;;9.63;3.70;;;;;;;15.55;55.67;101144.69;5052188;28;20036;-77
2023/04/21 07:47:10;;;;;;;5.72;3.15;;;;;;;14.18;56.94;101134.91;5053265;28;20048;-77
2023/04/21 07:49:37;;;;;;;8.45;2.88;;;;;;;12.41;62.00;101128.25;5052069;28;20033;-75
2023/04/21 07:52:03;;;;;;;8.35;4.15;;;;;;;10.99;70.49;101151.44;5035194;28;20356;-77
2023/04/21 07:54:28;;;;;;;6.97;4.72;;;;;;;10.00;77.92;101138.84;5035267;28;20040;-79
2023/04/21 07:56:54;;;;;;;9.88;4.40;;;;;;;9.85;80.88;101133.25;5035339;28;20055;-77
2023/04/21 07:59:20;;;;;;;7.65;4.63;;;;;;;9.42;83.29;101136.88;5019133;28;20503;-76
2023/04/21 08:01:45;;;;;;;8.68;5.82;;;;;;;9.18;86.35;101122.34;5053047;28;20029;-76
2023/04/21 08:04:11;;;;;;;13.07;6.15;;;;;;;9.16;87.93;101129.69;5019482;28;20467;-78
2023/04/21 08:06:37;;;;;;;9.75;3.78;;;;;;;9.21;89.62;101129.22;5055624;28;20029;-78
2023/04/21 08:09:05;;;;;;;8.68;3.72;;;;;;;9.35;90.94;101134.00;5022802;28;20025;-77
2023/04/21 08:11:30;;;;;;;6.80;3.60;;;;;;;9.48;90.31;101132.75;5039514;28;20045;-77
2023/04/21 08:13:57;;;;;;;6.45;3.75;;;;;;;9.51;89.72;101125.19;5056757;28;20088;-77
2023/04/21 08:16:22;;;;;;;8.55;4.15;;;;;;;9.38;89.99;101114.06;5055483;28;20036;-76
2023/04/21 08:18:48;;;;;;;17.65;5.75;;;;;;;12.60;76.74;101110.75;5038967;28;20033;-76
2023/04/21 08:21:14;;;;;;;10.15;5.38;;;;;;;13.84;66.71;101119.31;5022647;28;20051;-79
2023/04/21 08:23:39;;;;;;;7.22;3.88;;;;;;;15.66;62.96;101122.44;5055181;28;20029;-77
2023/04/21 08:26:05;;;;;;;12.10;5.75;;;;;;;17.03;55.07;101112.41;5056285;28;20055;-77
2023/04/21 08:28:31;;;;;;;7.22;4.15;;;;;;;17.35;51.17;101084.34;5038807;28;20398;-77
2023/04/21 08:30:57;;;;;;;7.75;4.32;;;;;;;17.74;49.13;101111.63;5056193;28;20540;-77
2023/04/21 08:33:25;;;;;;;9.70;5.68;;;;;;;16.05;50.04;101105.53;5054966;28;20472;-77
2023/04/21 08:35:50;;;;;;;6.88;3.78;;;;;;;15.22;54.20;101111.97;5038601;28;20098;-77
2023/04/21 08:38:16;;;;;;;13.90;4.95;;;;;;;15.33;54.18;101114.94;5055116;28;20037;-76
2023/04/21 08:40:42;;;;;;;5.95;4.38;;;;;;;14.67;56.75;101107.16;5054860;28;20020;-78
2023/04/21 08:43:07;;;;;;;11.55;4.57;;;;;;;14.69;57.39;101107.78;5038516;28;20478;-78
2023/04/21 08:45:33;;;;;;;5.88;3.78;;;;;;;13.73;59.90;101115.22;5056280;28;20120;-79
2023/04/21 08:48:05;;;;;;;4.90;2.95;;;;;;;12.67;65.73;101119.78;5038467;28;20032;-78
2023/04/21 08:50:32;;;;;;;10.52;4.15;;;;;;;12.57;66.35;101097.63;5038534;28;20025;-80
2023/04/21 08:52:58;;;;;;;11.18;3.95;;;;;;;12.63;67.32;101106.88;5021934;28;20037;-77
2023/04/21 08:55:31;;;;;;;7.20;3.90;;;;;;;12.17;70.05;101106.81;5037920;28;20048;-77
2023/04/21 08:57:57;;;;;;;6.88;5.00;;;;;;;12.08;69.12;101114.13;5021847;28;20032;-76
2023/04/21 09:00:23;;;;;;;6.85;3.95;;;;;;;11.83;70.75;101098.06;5054284;28;20116;-78
2023/04/21 09:02:57;;;;;;;10.98;5.63;;;;;;;11.87;68.48;101095.88;5055817;28;20534;-77
2023/04/21 09:05:30;;;;;;;7.97;5.22;;;;;;;11.70;69.65;101113.13;5038140;28;20040;-79
2023/04/21 09:08:10;;;;;;;8.55;4.53;;;;;;;11.51;71.72;101088.28;5054290;28;20436;-78
2023/04/21 09:10:49;;;;;;;9.15;4.90;;;;;;;11.84;73.39;101088.94;5021975;28;20071;-79
2023/04/21 09:13:16;;;;;;;9.65;4.05;;;;;;;12.14;71.32;101072.97;5021691;28;20076;-77
2023/04/21 09:15:44;;;;;;;8.93;4.22;;;;;;;12.37;70.89;101091.03;5053922;28;20095;-79
2023/04/21 09:18:15;;;;;;;9.10;3.83;;;;;;;13.41;68.33;101084.03;5021203;28;20033;-78
2023/04/21 09:20:42;;;;;;;6.35;3.92;;;;;;;13.41;64.63;101092.13;5054524;28;20041;-80
2023/04/21 09:23:09;;;;;;;7.90;5.47;;;;;;;13.39;63.20;101086.09;5055496;28;20041;-78
2023/04/21 09:25:37;;;;;;;6.70;3.75;;;;;;;12.88;66.72;101085.91;5037877;28;20448;-77
2023/04/21 09:28:06;;;;;;;12.27;5.13;;;;;;;13.46;67.46;101069.97;5054177;28;20029;-80
2023/04/21 09:30:35;;;;;;;9.52;3.90;;;;;;;12.88;66.14;101073.22;5037723;28;20044;-78
2023/04/21 09:33:00;;;;;;;7.97;4.65;;;;;;;12.75;68.34;101065.78;5053675;28;20506;-79
2023/04/21 09:35:33;;;;;;;8.18;5.03;;;;;;;13.11;67.90;101070.47;5021075;28;20037;-79
2023/04/21 09:38:01;;;;;;;4.78;3.60;;;;;;;12.98;66.23;101064.88;5054781;28;20468;-78
2023/04/21 09:40:28;;;;;;;4.25;3.85;;;;;;;12.49;69.83;101076.97;5020890;28;20032;-79
2023/04/21 09:42:54;;;;;;;4.25;3.00;;;;;;;12.84;70.67;101060.31;5021012;28;20041;-79
2023/04/21 09:45:25;;;;;;;10.68;4.80;;;;;;;14.17;63.98;101052.09;5053852;28;20383;-80
2023/04/21 09:47:55;;;;;;;11.93;5.80;;;;;;;15.02;60.52;101054.94;5037547;28;20481;-76
2023/04/21 09:50:21;;;;;;;6.43;4.45;;;;;;;15.79;57.16;101043.91;5053510;28;20566;-78
2023/04/21 09:52:53;;;;;;;9.55;5.45;;;;;;;15.72;57.61;101064.75;5037187;28;20131;-78
2023/04/21 09:55:23;;;;;;;9.38;4.53;;;;;;;15.51;57.55;101064.84;5005119;28;20479;-78
2023/04/21 09:57:51;;;;;;;9.18;5.70;;;;;;;15.33;57.82;101060.75;5037538;28;20029;-78
2023/04/21 10:00:17;;;;;;;40.00;7.43;;;;;;;15.47;57.93;101055.41;5041479;28;20046;-80
2023/04/21 10:02:46;;;;;;;10.20;4.80;;;;;;;14.86;56.99;101050.66;5037940;28;20044;-77
2023/04/21 10:05:12;;;;;;;9.82;5.60;;;;;;;14.30;60.96;101046.00;5036955;28;20025;-77
2023/04/21 10:07:38;;;;;;;8.68;5.25;;;;;;;13.91;62.77;101047.25;5036185;28;20033;-78
2023/04/21 10:10:07;;;;;;;12.57;6.93;;;;;;;13.85;65.23;101016.41;5051403;28;20418;-76
2023/04/21 10:12:33;;;;;;;12.45;6.53;;;;;;;13.81;64.66;101035.88;5003651;28;20043;-77
2023/04/21 10:15:03;;;;;;;8.20;5.22;;;;;;;13.58;65.25;101036.88;5053480;28;20056;-76
2023/04/21 10:17:33;;;;;;;9.60;5.47;;;;;;;14.49;62.05;101029.09;5037000;28;20032;-78
2023/04/21 10:20:33;;;;;;;12.18;5.03;;;;;;;14.02;63.90;101017.00;5021688;28;20072;-78
2023/04/21 10:22:59;;;;;;;9.00;6.13;;;;;;;13.92;64.56;101024.59;5053296;28;20043;-77
2023/04/21 10:25:28;;;;;;;8.85;6.10;;;;;;;14.43;64.02;101008.25;5036475;28;20144;-79
2023/04/21 10:27:54;;;;;;;11.73;5.82;;;;;;;16.12;60.88;101007.91;5036370;28;20036;-76
2023/04/21 10:30:21;;;;;;;12.40;6.47;;;;;;;16.58;57.78;100998.94;5036274;28;20025;-78
2023/04/21 10:32:47;;;;;;;13.15;6.28;;;;;;;17.15;54.75;100988.47;5053868;28;20029;-78
2023/04/21 10:35:16;;;;;;;9.73;6.90;;;;;;;19.36;50.57;100970.25;5036321;28;20071;-78
2023/04/21 10:37:42;;;;;;;9.18;6.18;;;;;;;20.70;48.21;100977.34;5052508;28;20116;-77
2023/04/21 10:40:37;;;;;;;8.35;4.72;;;;;;;22.66;39.68;100973.50;5019682;28;20045;-76
2023/04/21 10:43:03;;;;;;;9.50;6.40;;;;;;;22.91;39.01;100974.94;5043698;28;20068;-77
2023/04/21 10:45:30;;;;;;;9.73;6.35;;;;;;;23.81;40.32;100948.91;5052716;28;20513;-77
2023/04/21 10:47:58;;;;;;;12.13;6.95;;;;;;;24.33;34.15;100929.06;5053824;28;20593;-78
2023/04/21 10:50:28;;;;;;;9.07;6.22;;;;;;;23.49;36.66;100940.59;5052332;28;20394;-79
2023/04/21 10:53:13;;;;;;;11.30;7.38;;;;;;;23.96;35.49;100941.94;5052143;28;20395;-80
2023/04/21 10:55:40;;;;;;;9.60;6.00;;;;;;;22.42;36.75;100944.63;5019631;28;20037;-78
2023/04/21 10:58:08;;;;;;;11.57;6.45;;;;;;;20.17;40.96;100952.56;5052133;28;20056;-77
2023/04/21 11:00:37;;;;;;;11.38;6.43;;;;;;;18.93;44.09;100951.28;5019474;28;20037;-77
2023/04/21 11:03:05;;;;;;;7.55;6.43;;;;;;;20.74;40.64;100945.72;5036358;28;20498;-77
2023/04/21 11:05:49;;;;;;;14.25;8.65;;;;;;;20.21;41.41;100948.28;5052620;28;20068;-80
2023/04/21 11:08:15;;;;;;;13.90;7.25;;;;;;;22.39;38.17;100929.53;5035901;28;20395;-80
2023/04/21 11:10:45;;;;;;;12.70;8.30;;;;;;;23.58;34.99;100921.78;5052293;28;20086;-76
2023/04/21 11:13:13;;;;;;;11.60;6.45;;;;;;;23.90;34.75;100908.94;5053274;28;20036;-78
2023/04/21 11:15:39;;;;;;;11.95;7.88;;;;;;;24.37;34.32;100896.38;5052154;28;20029;-76
2023/04/21 11:18:06;;;;;;;7.30;6.25;;;;;;;22.60;36.13;100906.81;5053386;28;20459;-77
2023/04/21 11:20:32;;;;;;;7.47;6.38;;;;;;;22.82;36.64;100904.09;5019496;28;20082;-75
2023/04/21 11:23:00;;;;;;;10.07;6.80;;;;;;;24.12;34.37;100880.53;5035627;28;20036;-77
2023/04/21 11:25:25;;;;;;;7.88;6.05;;;;;;;24.47;33.13;100873.66;5035256;28;20033;-78
2023/04/21 11:27:55;;;;;;;9.00;6.85;;;;;;;25.11;32.83;100889.94;5052172;28;20079;-78